Time;durP1;ratioP1;P1;durP2;ratioP2;P2;SDS_P1;SDS_P2;PMS_P1;PMS_P2;Temp;Humidity;BMP_temperature;BMP_pressure;BME280_temperature;BME280_humidity;BME280_pressure;Samples;Min_cycle;Max_cycle;Signal;HPM_P1;HPM_P2
2022/02/23 00:00:11;;;;;;;12.07;4.18;;;;;;;7.57;74.56;100213.88;4946669;28;20500;-73
2022/02/23 00:02:37;;;;;;;12.40;4.30;;;;;;;7.55;75.00;100211.28;4947582;28;20050;-74
2022/02/23 00:05:03;;;;;;;15.75;5.22;;;;;;;7.55;75.19;100226.16;4964764;28;20049;-74
2022/02/23 00:07:28;;;;;;;38.53;5.03;;;;;;;7.52;75.45;100224.50;4947865;28;20063;-74
2022/02/23 00:09:55;;;;;;;16.58;4.70;;;;;;;7.51;75.87;100222.78;4942292;28;20122;-75
2022/02/23 00:12:20;;;;;;;12.35;5.35;;;;;;;7.47;76.44;100229.88;4925985;28;20441;-75
2022/02/23 00:14:46;;;;;;;19.80;5.10;;;;;;;7.46;76.67;100227.31;4964600;28;20047;-76
2022/02/23 00:17:11;;;;;;;20.90;5.55;;;;;;;7.46;76.83;100232.56;4981602;28;20069;-75
2022/02/23 00:19:46;;;;;;;17.85;5.88;;;;;;;7.44;77.26;100232.59;4962454;28;20708;-76
2022/02/23 00:22:14;;;;;;;14.75;6.43;;;;;;;7.43;77.37;100240.50;4916927;28;20043;-74
2022/02/23 00:24:39;;;;;;;13.60;4.32;;;;;;;7.41;77.78;100243.19;4955676;28;20525;-75
2022/02/23 00:27:05;;;;;;;14.90;4.93;;;;;;;7.35;78.37;100238.09;4982559;28;20030;-74
2022/02/23 00:29:30;;;;;;;23.25;3.85;;;;;;;7.29;78.61;100238.28;4948418;28;20057;-74
2022/02/23 00:31:55;;;;;;;16.25;5.13;;;;;;;7.23;78.66;100239.31;4965350;28;20030;-75
2022/02/23 00:34:21;;;;;;;14.10;4.38;;;;;;;7.19;78.84;100245.56;4965512;28;20128;-74
2022/02/23 00:36:46;;;;;;;21.35;6.68;;;;;;;7.17;79.33;100251.75;4964159;28;20105;-73
2022/02/23 00:39:11;;;;;;;19.98;5.60;;;;;;;7.12;79.27;100257.13;4982718;28;20476;-73
2022/02/23 00:41:37;;;;;;;21.20;4.85;;;;;;;7.08;79.59;100260.72;4972112;28;20043;-73
2022/02/23 00:44:02;;;;;;;14.63;5.55;;;;;;;7.03;79.46;100266.06;4982845;28;20064;-73
2022/02/23 00:46:28;;;;;;;31.55;6.32;;;;;;;6.99;79.75;100264.47;4981083;28;20038;-74
2022/02/23 00:48:54;;;;;;;28.73;5.05;;;;;;;6.95;79.18;100270.66;4965196;28;20042;-75
2022/02/23 00:51:52;;;;;;;11.48;4.78;;;;;;;6.91;79.47;100279.50;4982122;28;20042;-73
2022/02/23 00:54:18;;;;;;;22.13;4.68;;;;;;;6.86;79.67;100289.25;4964258;28;20038;-74
2022/02/23 00:56:45;;;;;;;16.55;5.15;;;;;;;6.80;79.83;100287.66;4982410;28;20043;-74
2022/02/23 00:59:10;;;;;;;23.58;6.43;;;;;;;6.75;79.58;100288.69;4982384;28;20034;-74
2022/02/23 01:01:36;;;;;;;13.30;5.38;;;;;;;6.70;80.33;100290.56;4982416;28;20793;-73
2022/02/23 01:04:02;;;;;;;15.88;4.78;;;;;;;6.65;79.51;100294.16;4982778;28;20418;-73
2022/02/23 01:06:27;;;;;;;14.45;4.78;;;;;;;6.62;79.63;100290.72;4982614;28;20100;-74
2022/02/23 01:08:52;;;;;;;27.52;6.95;;;;;;;6.57;79.56;100290.88;4981392;28;20046;-73
2022/02/23 01:11:20;;;;;;;21.25;5.90;;;;;;;6.55;79.33;100294.44;4972067;28;20581;-72
2022/02/23 01:13:54;;;;;;;22.20;4.82;;;;;;;6.50;79.47;100304.13;4954288;28;20401;-73
2022/02/23 01:16:20;;;;;;;20.50;6.45;;;;;;;6.45;79.96;100307.72;4972995;28;20045;-75
2022/02/23 01:19:12;;;;;;;13.27;5.25;;;;;;;6.41;79.39;100316.56;4983633;28;20042;-74
2022/02/23 01:21:40;;;;;;;15.50;4.88;;;;;;;6.37;79.50;100311.41;4936820;28;20046;-74
2022/02/23 01:24:06;;;;;;;18.77;5.32;;;;;;;6.35;79.19;100318.44;4979929;28;20038;-74
2022/02/23 01:26:31;;;;;;;10.15;4.15;;;;;;;6.30;79.31;100329.06;4983080;28;20121;-76
2022/02/23 01:28:57;;;;;;;39.50;6.20;;;;;;;6.27;79.27;100326.47;4987903;28;20038;-76
2022/02/23 01:31:23;;;;;;;21.00;5.68;;;;;;;6.22;79.18;100331.81;4971176;28;20030;-75
2022/02/23 01:33:48;;;;;;;13.50;4.93;;;;;;;6.20;79.00;100338.88;4973952;28;20041;-74
2022/02/23 01:36:14;;;;;;;18.42;5.40;;;;;;;6.16;79.38;100342.44;4962807;28;20042;-74
2022/02/23 01:38:39;;;;;;;25.42;5.15;;;;;;;6.14;79.29;100343.38;4982458;28;20665;-74
2022/02/23 01:41:06;;;;;;;13.50;4.80;;;;;;;6.11;78.91;100344.31;4977830;28;20085;-74
2022/02/23 01:43:31;;;;;;;11.32;4.13;;;;;;;6.08;79.40;100344.38;4989678;28;20073;-73
2022/02/23 01:45:57;;;;;;;12.57;4.10;;;;;;;6.05;78.81;100338.34;4977170;28;20038;-75
2022/02/23 01:48:23;;;;;;;17.17;5.97;;;;;;;6.01;78.41;100348.03;4982960;28;20035;-74
2022/02/23 01:50:48;;;;;;;16.02;4.75;;;;;;;5.98;78.57;100341.09;4974526;28;20038;-74
2022/02/23 01:53:16;;;;;;;17.00;5.15;;;;;;;5.97;78.56;100347.22;4992117;28;20034;-73
2022/02/23 01:55:42;;;;;;;18.63;5.57;;;;;;;5.94;79.13;100346.44;4972728;28;20041;-73
2022/02/23 01:58:20;;;;;;;19.52;5.28;;;;;;;5.91;78.63;100352.56;4964017;28;20036;-73
2022/02/23 02:00:46;;;;;;;22.63;6.30;;;;;;;5.89;79.01;100350.88;4896153;28;20043;-73
2022/02/23 02:03:11;;;;;;;17.17;4.65;;;;;;;5.87;78.87;100345.66;4941192;28;20250;-75
2022/02/23 02:05:37;;;;;;;10.60;4.30;;;;;;;5.86;78.45;100343.94;4988569;28;20049;-74
2022/02/23 02:08:03;;;;;;;12.57;5.07;;;;;;;5.85;78.43;100357.03;4989047;28;20034;-74
2022/02/23 02:10:28;;;;;;;15.40;4.20;;;;;;;5.82;78.25;100358.81;4988665;28;20045;-75
2022/02/23 02:12:54;;;;;;;27.33;8.00;;;;;;;5.80;78.11;100359.75;4954335;28;20043;-75
2022/02/23 02:15:19;;;;;;;17.67;5.70;;;;;;;5.80;78.13;100360.59;4940561;28;20038;-75
2022/02/23 02:17:44;;;;;;;13.07;5.20;;;;;;;5.77;78.04;100358.06;4956161;28;20053;-74
2022/02/23 02:20:11;;;;;;;9.90;4.18;;;;;;;5.74;77.91;100358.13;4990270;28;20034;-75
2022/02/23 02:22:37;;;;;;;13.45;3.67;;;;;;;5.74;77.72;100355.50;4973429;28;20031;-75
2022/02/23 02:25:05;;;;;;;19.55;5.00;;;;;;;5.71;77.73;100355.59;4972413;28;20113;-75
2022/02/23 02:27:30;;;;;;;19.02;5.45;;;;;;;5.67;77.65;100361.75;4990775;28;20045;-74
2022/02/23 02:29:56;;;;;;;15.43;4.88;;;;;;;5.65;78.16;100358.31;4957068;28;20038;-74
2022/02/23 02:32:21;;;;;;;13.88;4.90;;;;;;;5.59;78.32;100358.44;4990542;28;20451;-75
2022/02/23 02:34:47;;;;;;;16.95;5.90;;;;;;;5.52;79.19;100355.06;4973735;28;20038;-75
2022/02/23 02:37:14;;;;;;;19.00;6.03;;;;;;;5.50;79.30;100350.78;4954164;28;20446;-75
2022/02/23 02:39:42;;;;;;;16.13;4.00;;;;;;;5.43;79.81;100360.47;4928782;28;20042;-75
2022/02/23 02:42:08;;;;;;;11.68;4.75;;;;;;;5.39;80.04;100350.97;4975490;28;20042;-75
2022/02/23 02:44:34;;;;;;;10.32;4.90;;;;;;;5.35;80.60;100358.00;4967504;28;20040;-76
2022/02/23 02:47:00;;;;;;;11.75;5.15;;;;;;;5.30;80.21;100361.59;4979111;28;20125;-76
2022/02/23 02:49:25;;;;;;;23.67;5.40;;;;;;;5.25;80.33;100359.06;4973376;28;20038;-76
2022/02/23 02:52:33;;;;;;;13.73;5.15;;;;;;;5.20;80.39;100354.81;4994933;28;20038;-76
2022/02/23 02:54:59;;;;;;;23.05;6.25;;;;;;;5.14;80.34;100364.50;4973016;28;20538;-76
2022/02/23 02:57:24;;;;;;;14.27;4.10;;;;;;;5.11;80.73;100358.44;4991801;28;20128;-75
2022/02/23 02:59:50;;;;;;;10.35;4.35;;;;;;;5.09;80.59;100360.22;4993970;28;20065;-74
2022/02/23 03:02:15;;;;;;;15.18;6.03;;;;;;;5.04;80.25;100365.53;4995881;28;20030;-75
2022/02/23 03:04:41;;;;;;;21.17;4.28;;;;;;;5.01;80.97;100370.81;4995606;28;20078;-75
2022/02/23 03:07:06;;;;;;;16.88;4.82;;;;;;;4.98;80.34;100375.25;4995356;28;20041;-74
2022/02/23 03:09:31;;;;;;;18.20;6.13;;;;;;;4.95;80.62;100379.63;4994119;28;20046;-76
2022/02/23 03:11:57;;;;;;;13.48;4.70;;;;;;;4.92;81.19;100384.03;4992710;28;20035;-75
2022/02/23 03:14:22;;;;;;;14.43;4.43;;;;;;;4.90;79.91;100385.81;4959213;28;20062;-75
2022/02/23 03:16:48;;;;;;;12.38;4.72;;;;;;;4.87;80.81;100381.50;4972601;28;20034;-76
2022/02/23 03:19:14;;;;;;;8.85;4.55;;;;;;;4.85;80.42;100391.13;4972974;28;20516;-75
2022/02/23 03:21:39;;;;;;;13.27;5.13;;;;;;;4.81;80.67;100391.19;4986200;28;20399;-74
2022/02/23 03:24:05;;;;;;;17.73;4.90;;;;;;;4.78;81.10;100393.84;4992156;28;20038;-74
2022/02/23 03:26:30;;;;;;;11.73;4.88;;;;;;;4.74;80.95;100398.25;4991475;28;20031;-74
2022/02/23 03:28:56;;;;;;;18.15;4.35;;;;;;;4.70;80.54;100399.16;4992139;28;20038;-74
2022/02/23 03:31:21;;;;;;;15.75;4.82;;;;;;;4.69;81.32;100402.69;4991968;28;20118;-75
2022/02/23 03:33:46;;;;;;;16.52;4.47;;;;;;;4.68;81.05;100409.66;4991944;28;20058;-75
2022/02/23 03:36:13;;;;;;;18.98;5.05;;;;;;;4.66;80.61;100411.44;4973942;28;20041;-74
2022/02/23 03:38:40;;;;;;;12.48;4.28;;;;;;;4.64;80.81;100414.94;4989489;28;20034;-75
2022/02/23 03:41:06;;;;;;;14.10;4.65;;;;;;;4.62;80.65;100408.88;4971574;28;20140;-74
2022/02/23 03:43:31;;;;;;;17.13;4.15;;;;;;;4.61;80.62;100409.78;4964467;28;20475;-75
2022/02/23 03:45:57;;;;;;;16.95;4.85;;;;;;;4.59;80.69;100422.84;4991752;28;20052;-74
2022/02/23 03:48:22;;;;;;;12.43;3.65;;;;;;;4.57;80.49;100424.59;4992332;28;20061;-75
2022/02/23 03:51:15;;;;;;;17.88;5.80;;;;;;;4.57;80.13;100428.97;4981417;28;20544;-76
2022/02/23 03:53:50;;;;;;;12.38;4.78;;;;;;;4.57;79.92;100435.06;4913648;29;20071;-74
2022/02/23 03:59:00;;;;;;;15.90;4.75;;;;;;;4.52;79.97;100440.34;4990867;28;20281;-76
2022/02/23 04:01:25;;;;;;;13.65;4.38;;;;;;;4.51;80.06;100446.47;4973715;28;20038;-74
2022/02/23 04:03:51;;;;;;;9.27;3.53;;;;;;;4.49;80.30;100445.59;4990638;28;20072;-73
2022/02/23 04:06:16;;;;;;;21.40;5.82;;;;;;;4.46;80.11;100443.06;4991293;28;20403;-75
2022/02/23 04:09:18;;;;;;;14.93;4.53;;;;;;;4.44;80.39;100452.66;4987600;28;20484;-75
2022/02/23 04:11:44;;;;;;;15.98;5.28;;;;;;;4.44;80.54;100457.88;4931176;28;20070;-74
2022/02/23 04:14:09;;;;;;;18.33;6.00;;;;;;;4.40;80.91;100461.38;4991549;28;20504;-74
2022/02/23 04:16:36;;;;;;;15.60;5.53;;;;;;;4.38;80.77;100463.19;4990795;28;20061;-74
2022/02/23 04:19:03;;;;;;;13.52;5.40;;;;;;;4.38;80.73;100465.78;4989803;28;20080;-73
2022/02/23 04:21:29;;;;;;;13.02;4.10;;;;;;;4.39;80.48;100472.72;4990945;28;20053;-73
2022/02/23 04:23:55;;;;;;;15.90;4.63;;;;;;;4.39;80.16;100467.50;4973335;28;20034;-73
2022/02/23 04:26:20;;;;;;;11.73;6.00;;;;;;;4.39;80.44;100483.16;4990063;28;20096;-74
2022/02/23 04:28:46;;;;;;;11.63;4.13;;;;;;;4.37;80.23;100477.09;4973809;28;20507;-75
2022/02/23 04:31:13;;;;;;;25.50;4.43;;;;;;;4.33;80.22;100479.75;4991154;28;20791;-76
2022/02/23 04:33:39;;;;;;;11.48;4.30;;;;;;;4.33;80.40;100482.38;4990269;28;20041;-76
2022/02/23 04:36:06;;;;;;;18.08;5.53;;;;;;;4.29;80.49;100481.56;4989322;28;20062;-74
2022/02/23 04:38:32;;;;;;;13.50;4.28;;;;;;;4.27;80.34;100485.94;4989930;28;20038;-74
2022/02/23 04:40:57;;;;;;;15.88;5.07;;;;;;;4.26;80.44;100492.06;4973199;28;20614;-75
2022/02/23 04:43:23;;;;;;;17.63;4.28;;;;;;;4.24;80.50;100489.44;4991373;28;20113;-74
2022/02/23 04:45:50;;;;;;;10.88;3.80;;;;;;;4.24;80.43;100499.03;4990276;28;20121;-75
2022/02/23 04:48:16;;;;;;;10.40;4.00;;;;;;;4.23;80.49;100500.78;4990287;28;20030;-74
2022/02/23 04:50:41;;;;;;;18.05;5.43;;;;;;;4.22;79.95;100503.41;4990087;28;20042;-73
2022/02/23 04:53:27;;;;;;;9.43;4.03;;;;;;;4.18;80.05;100493.88;4987933;28;20041;-75
2022/02/23 04:55:52;;;;;;;12.80;4.28;;;;;;;4.15;79.95;100494.75;4989032;28;20035;-74
2022/02/23 04:58:18;;;;;;;13.25;4.32;;;;;;;4.15;80.27;100493.91;4988960;28;20404;-74
2022/02/23 05:00:44;;;;;;;8.20;3.75;;;;;;;4.14;80.07;100500.03;4990235;28;22194;-74
2022/02/23 05:03:09;;;;;;;14.48;4.65;;;;;;;4.12;80.15;100501.78;4989593;28;20027;-74
2022/02/23 05:05:35;;;;;;;9.65;3.90;;;;;;;4.11;80.58;100502.63;4990023;28;20042;-74
2022/02/23 05:08:01;;;;;;;13.15;4.70;;;;;;;4.11;79.86;100505.25;4988643;28;20519;-74
2022/02/23 05:10:27;;;;;;;8.15;3.70;;;;;;;4.07;80.49;100510.50;4990153;28;20065;-74
2022/02/23 05:12:52;;;;;;;10.48;4.00;;;;;;;4.06;80.29;100513.13;4990459;28;20038;-74
2022/02/23 05:15:18;;;;;;;8.98;3.63;;;;;;;4.03;80.48;100505.34;4953892;28;20110;-75
2022/02/23 05:17:43;;;;;;;12.85;4.68;;;;;;;4.01;80.68;100515.81;4980810;28;20066;-74
2022/02/23 05:23:32;;;;;;;16.15;5.50;;;;;;;3.96;80.52;100519.31;4906320;28;20163;-74
2022/02/23 05:25:57;;;;;;;9.18;4.15;;;;;;;3.93;80.64;100528.03;4970092;28;20087;-74
2022/02/23 05:28:24;;;;;;;14.25;4.47;;;;;;;3.90;80.46;100522.88;4955060;28;20038;-74
2022/02/23 05:30:49;;;;;;;15.80;5.65;;;;;;;3.88;80.75;100529.84;4972267;28;20045;-75
2022/02/23 05:33:14;;;;;;;12.70;4.50;;;;;;;3.87;80.63;100541.16;4972130;28;20070;-74
2022/02/23 05:36:16;;;;;;;12.88;4.60;;;;;;;3.86;80.63;100537.69;4969390;28;20489;-74
2022/02/23 05:38:42;;;;;;;12.65;5.95;;;;;;;3.80;80.47;100531.66;4948262;28;20031;-75
2022/02/23 05:41:07;;;;;;;18.85;4.75;;;;;;;3.78;80.98;100536.03;4955247;28;20420;-75
2022/02/23 05:43:33;;;;;;;10.40;4.30;;;;;;;3.75;81.07;100534.31;4972960;28;20096;-74
2022/02/23 05:45:58;;;;;;;14.77;5.20;;;;;;;3.70;81.74;100533.50;4978044;28;20054;-74
2022/02/23 05:48:24;;;;;;;16.58;4.53;;;;;;;3.63;81.71;100535.28;4983077;28;20038;-75
2022/02/23 05:50:50;;;;;;;16.50;4.95;;;;;;;3.60;81.99;100534.47;4987479;28;20033;-74
2022/02/23 05:53:37;;;;;;;17.35;4.65;;;;;;;3.54;81.47;100539.72;4936063;28;20635;-74
2022/02/23 05:56:04;;;;;;;10.48;4.75;;;;;;;3.55;81.71;100538.84;4942428;28;20066;-75
2022/02/23 05:58:29;;;;;;;20.40;4.70;;;;;;;3.52;81.96;100547.56;4953940;28;20043;-76
2022/02/23 06:00:55;;;;;;;20.08;6.60;;;;;;;3.52;82.49;100544.97;4970062;28;20653;-76
2022/02/23 06:03:20;;;;;;;21.52;5.35;;;;;;;3.48;82.48;100548.44;4952252;28;20445;-77
2022/02/23 06:05:45;;;;;;;17.58;5.40;;;;;;;3.46;81.92;100545.00;4952446;28;20064;-74
2022/02/23 06:08:11;;;;;;;17.10;6.00;;;;;;;3.43;82.37;100539.81;4952926;28;20045;-74
2022/02/23 06:10:36;;;;;;;17.40;7.07;;;;;;;3.43;82.64;100550.22;4936611;28;20034;-75
2022/02/23 06:13:02;;;;;;;18.25;6.15;;;;;;;3.42;82.91;100545.88;4970145;28;20391;-75
2022/02/23 06:15:27;;;;;;;18.10;5.70;;;;;;;3.42;82.83;100553.69;4954940;28;20038;-76
2022/02/23 06:17:52;;;;;;;18.42;5.47;;;;;;;3.44;82.69;100557.16;4960956;28;20039;-76
2022/02/23 06:20:22;;;;;;;18.95;6.00;;;;;;;3.46;82.73;100554.56;4962178;28;20089;-76
2022/02/23 06:22:47;;;;;;;16.00;6.57;;;;;;;3.46;82.90;100550.19;4965460;28;20035;-75
2022/02/23 06:25:13;;;;;;;17.58;6.03;;;;;;;3.46;82.85;100550.19;4984172;28;20034;-75
2022/02/23 06:27:48;;;;;;;15.45;6.97;;;;;;;3.49;82.97;100560.59;4976442;28;20129;-75
2022/02/23 06:30:14;;;;;;;24.33;6.10;;;;;;;3.50;83.13;100559.75;4952497;28;20061;-76
2022/02/23 06:32:59;;;;;;;13.82;5.90;;;;;;;3.53;82.94;100566.66;4921858;29;20541;-74
2022/02/23 06:38:23;;;;;;;31.25;7.53;;;;;;;3.52;82.77;100560.59;5028522;23;20041;-76
2022/02/23 06:40:50;;;;;;;15.57;5.43;;;;;;;3.54;82.66;100566.63;5028121;28;20520;-75
2022/02/23 06:43:17;;;;;;;11.82;4.47;;;;;;;3.54;82.44;100563.16;5018074;28;20065;-76
2022/02/23 06:45:48;;;;;;;13.20;5.32;;;;;;;3.57;82.47;100571.84;5033270;28;20052;-76
2022/02/23 06:51:36;;;;;;;13.00;4.65;;;;;;;3.61;82.73;100575.28;5016028;28;20184;-76
2022/02/23 06:54:01;;;;;;;16.42;5.88;;;;;;;3.63;82.44;100573.53;5015886;28;20037;-76
2022/02/23 06:56:27;;;;;;;14.70;5.72;;;;;;;3.65;82.32;100570.03;5014028;28;20564;-76
2022/02/23 06:58:52;;;;;;;12.18;4.53;;;;;;;3.68;82.21;100576.97;5020319;28;20431;-76
2022/02/23 07:01:19;;;;;;;16.23;4.78;;;;;;;3.73;82.58;100575.19;5015498;28;20045;-75
2022/02/23 07:03:47;;;;;;;13.82;5.85;;;;;;;3.77;82.27;100578.66;5021112;28;20049;-75
2022/02/23 07:06:16;;;;;;;20.92;5.15;;;;;;;3.79;82.08;100584.69;5023280;28;20049;-74
2022/02/23 07:08:46;;;;;;;17.90;5.63;;;;;;;3.81;81.64;100588.16;5028152;28;20042;-75
2022/02/23 07:11:12;;;;;;;12.32;4.43;;;;;;;3.83;81.86;100582.03;5016465;28;20033;-75
2022/02/23 07:13:38;;;;;;;12.05;5.32;;;;;;;3.88;81.67;100590.69;5018176;28;20054;-69
2022/02/23 07:16:03;;;;;;;10.35;4.53;;;;;;;3.94;81.35;100595.00;5015630;28;20096;-71
2022/02/23 07:18:29;;;;;;;17.02;5.20;;;;;;;3.96;82.03;100593.22;5004794;28;20054;-68
2022/02/23 07:20:55;;;;;;;17.65;5.32;;;;;;;4.05;81.41;100595.75;5002994;28;20069;-68
2022/02/23 07:23:20;;;;;;;10.95;4.93;;;;;;;4.13;81.04;100594.81;5010701;28;20050;-69
2022/02/23 07:25:45;;;;;;;13.30;4.35;;;;;;;4.21;80.81;100604.31;4992052;28;20044;-69
2022/02/23 07:28:11;;;;;;;17.92;8.43;;;;;;;4.28;81.12;100599.88;5006907;28;20092;-69
2022/02/23 07:30:38;;;;;;;16.25;4.55;;;;;;;4.31;80.92;100592.03;5012589;28;20050;-70
2022/02/23 07:33:03;;;;;;;13.25;4.05;;;;;;;4.41;80.30;100595.41;5001075;28;20038;-70
2022/02/23 07:35:29;;;;;;;12.65;4.70;;;;;;;4.46;79.89;100598.84;4993157;28;20049;-70
2022/02/23 07:37:55;;;;;;;15.52;4.75;;;;;;;4.52;80.11;100603.97;4998069;28;20078;-70
2022/02/23 07:40:23;;;;;;;16.33;4.80;;;;;;;4.57;79.89;100602.19;5010270;28;20057;-70
2022/02/23 07:42:49;;;;;;;16.27;6.97;;;;;;;4.65;79.52;100607.31;5006586;28;20042;-68
2022/02/23 07:45:14;;;;;;;16.98;4.15;;;;;;;4.73;79.24;100600.25;5010534;28;20103;-67
2022/02/23 07:47:40;;;;;;;24.58;6.45;;;;;;;4.78;79.60;100606.28;4993644;28;20041;-67
2022/02/23 07:50:11;;;;;;;17.65;5.43;;;;;;;4.80;79.02;100612.38;5009448;28;20153;-67
2022/02/23 07:52:37;;;;;;;19.60;6.15;;;;;;;4.87;78.99;100613.13;5008964;28;20065;-68
2022/02/23 07:55:03;;;;;;;9.68;4.32;;;;;;;4.93;78.67;100608.72;5011361;28;20092;-68
2022/02/23 07:57:28;;;;;;;13.40;4.75;;;;;;;5.00;78.50;100613.88;5010496;28;20042;-68
2022/02/23 07:59:54;;;;;;;13.15;5.38;;;;;;;5.08;78.50;100604.16;5011584;28;20084;-69
2022/02/23 08:02:20;;;;;;;16.35;5.10;;;;;;;5.14;78.45;100612.78;5009376;28;20050;-69
2022/02/23 08:04:52;;;;;;;12.63;4.45;;;;;;;5.20;78.59;100614.44;5010691;28;20034;-70
2022/02/23 08:07:20;;;;;;;19.98;6.22;;;;;;;5.25;78.22;100617.88;5011282;28;20410;-69
2022/02/23 08:09:46;;;;;;;20.27;4.57;;;;;;;5.32;77.59;100616.91;5010992;28;20103;-68
2022/02/23 08:12:12;;;;;;;12.10;4.13;;;;;;;5.41;77.33;100615.03;5008893;28;20038;-69
2022/02/23 08:14:39;;;;;;;15.68;4.60;;;;;;;5.47;76.71;100622.78;5011133;28;20037;-69
2022/02/23 08:19:49;;;;;;;11.63;4.35;;;;;;;5.60;76.55;100624.31;5010649;28;20040;-68
2022/02/23 08:22:15;;;;;;;18.38;5.47;;;;;;;5.68;76.69;100618.97;5010977;28;20117;-67
2022/02/23 08:24:46;;;;;;;11.63;5.15;;;;;;;5.79;76.37;100622.28;5010955;28;20037;-68
2022/02/23 08:27:17;;;;;;;14.13;5.05;;;;;;;5.86;75.83;100623.94;5010507;28;20037;-69
2022/02/23 08:29:44;;;;;;;10.93;4.85;;;;;;;5.90;75.14;100619.50;5011136;28;20045;-68
2022/02/23 08:32:12;;;;;;;11.65;4.47;;;;;;;5.97;75.30;100626.38;5010988;28;20056;-69
2022/02/23 08:34:39;;;;;;;14.27;5.20;;;;;;;6.06;75.28;100623.63;5011194;28;20057;-68
2022/02/23 08:37:06;;;;;;;15.35;4.75;;;;;;;6.11;75.14;100629.63;5010864;28;20529;-68
2022/02/23 08:39:33;;;;;;;12.30;4.60;;;;;;;6.18;74.48;100626.03;5010230;28;20402;-68
2022/02/23 08:41:58;;;;;;;14.40;4.13;;;;;;;6.27;74.53;100622.34;5010337;28;20065;-68
2022/02/23 08:44:24;;;;;;;21.27;4.75;;;;;;;6.37;74.43;100633.53;5010840;28;20042;-68
2022/02/23 08:46:50;;;;;;;13.80;5.13;;;;;;;6.43;73.95;100630.81;5009979;28;20044;-68
2022/02/23 08:49:17;;;;;;;16.25;5.50;;;;;;;6.48;73.83;100626.34;5010262;28;20034;-69
2022/02/23 08:51:44;;;;;;;12.15;5.05;;;;;;;6.56;73.48;100631.44;5009322;28;20037;-67
2022/02/23 08:54:11;;;;;;;12.63;4.68;;;;;;;6.60;73.28;100633.97;5010101;28;20129;-69
2022/02/23 08:56:36;;;;;;;26.38;5.85;;;;;;;6.67;72.40;100626.88;5009928;28;20113;-68
2022/02/23 08:59:02;;;;;;;13.57;5.05;;;;;;;6.66;72.46;100625.97;5009189;28;20634;-68
2022/02/23 09:01:29;;;;;;;19.17;5.05;;;;;;;6.74;72.71;100628.44;5010205;28;20034;-68
2022/02/23 09:03:56;;;;;;;13.40;5.80;;;;;;;6.81;72.44;100635.28;5010338;28;20037;-70
2022/02/23 09:06:22;;;;;;;11.40;5.13;;;;;;;6.90;72.03;100636.03;5009711;28;20030;-67
2022/02/23 09:08:48;;;;;;;15.68;5.50;;;;;;;7.01;71.86;100642.75;5010217;28;20475;-68
2022/02/23 09:11:14;;;;;;;17.65;5.10;;;;;;;7.17;72.21;100640.69;5020212;28;20037;-67
2022/02/23 09:13:39;;;;;;;19.17;5.60;;;;;;;7.31;70.63;100640.41;5030158;28;20044;-68
2022/02/23 09:16:06;;;;;;;13.32;4.93;;;;;;;8.23;68.27;100640.81;5028363;28;20443;-69
2022/02/23 09:18:32;;;;;;;18.17;7.32;;;;;;;9.55;63.37;100647.59;5030364;28;20066;-68
2022/02/23 09:20:57;;;;;;;12.60;5.63;;;;;;;10.86;59.78;100640.59;5030833;28;20078;-69
2022/02/23 09:23:23;;;;;;;13.40;6.03;;;;;;;12.02;56.36;100638.69;5030609;28;20030;-69
2022/02/23 09:25:48;;;;;;;15.98;5.78;;;;;;;12.80;54.28;100639.75;5018422;28;20033;-69
2022/02/23 09:28:14;;;;;;;13.05;5.72;;;;;;;13.44;51.94;100629.81;5011365;28;20037;-69
2022/02/23 09:30:40;;;;;;;12.30;5.20;;;;;;;14.04;50.19;100632.19;5009201;28;20456;-69
2022/02/23 09:33:05;;;;;;;15.32;5.80;;;;;;;14.60;48.71;100631.97;5010244;28;20111;-69
2022/02/23 09:35:30;;;;;;;15.23;6.32;;;;;;;14.80;47.75;100630.91;5009714;28;20042;-68
2022/02/23 09:37:57;;;;;;;15.00;5.20;;;;;;;15.15;46.65;100628.16;5009000;28;20049;-69
2022/02/23 09:40:23;;;;;;;18.67;6.55;;;;;;;15.39;45.39;100625.94;5009602;28;20029;-70
2022/02/23 09:42:50;;;;;;;10.15;4.97;;;;;;;15.46;45.56;100629.97;5010115;28;20034;-71
2022/02/23 09:45:17;;;;;;;16.15;5.88;;;;;;;15.80;44.34;100620.13;5007291;28;20064;-69
2022/02/23 09:47:43;;;;;;;16.45;6.40;;;;;;;15.70;45.08;100624.22;5009866;28;20041;-69
2022/02/23 09:50:11;;;;;;;19.38;6.50;;;;;;;16.14;43.45;100622.59;5016362;28;20049;-69
2022/02/23 09:52:37;;;;;;;14.93;6.50;;;;;;;16.23;43.52;100622.91;5024130;28;20102;-68
2022/02/23 09:55:05;;;;;;;13.93;5.72;;;;;;;16.47;42.91;100625.06;5019573;28;20053;-69
2022/02/23 09:57:31;;;;;;;14.20;6.18;;;;;;;16.73;42.81;100621.66;5009020;28;20117;-69
2022/02/23 09:59:57;;;;;;;15.60;8.18;;;;;;;16.80;42.06;100616.84;5005159;28;25273;-75
2022/02/23 10:02:23;;;;;;;11.88;5.65;;;;;;;17.01;41.61;100622.66;4993687;28;20056;-76
2022/02/23 10:04:49;;;;;;;14.73;6.50;;;;;;;17.13;40.11;100619.22;5004470;28;20030;-75
2022/02/23 10:07:30;;;;;;;16.63;6.05;;;;;;;17.43;40.65;100609.38;4987627;28;20507;-76
2022/02/23 10:09:57;;;;;;;14.30;5.93;;;;;;;17.66;40.13;100610.53;4990013;28;20064;-76
2022/02/23 10:12:27;;;;;;;14.93;5.30;;;;;;;17.90;39.53;100608.09;4986498;28;20042;-76
2022/02/23 10:15:12;;;;;;;21.80;7.85;;;;;;;17.67;38.33;100605.09;4997805;28;20422;-74
2022/02/23 10:17:44;;;;;;;17.85;6.13;;;;;;;17.51;38.71;100601.72;4997858;28;20435;-75
2022/02/23 10:20:51;;;;;;;12.70;5.18;;;;;;;17.67;37.36;100602.44;4996831;28;20506;-74
2022/02/23 10:23:19;;;;;;;11.73;5.18;;;;;;;17.34;38.23;100602.81;5004156;28;20057;-75
2022/02/23 10:25:53;;;;;;;14.65;6.32;;;;;;;17.73;38.17;100606.50;5006412;28;20041;-74
2022/02/23 10:28:22;;;;;;;8.40;4.68;;;;;;;17.80;37.84;100600.69;5006264;28;20034;-74
2022/02/23 10:30:50;;;;;;;15.45;5.53;;;;;;;17.92;37.91;100606.19;5002516;28;20045;-73
2022/02/23 10:33:22;;;;;;;12.57;5.93;;;;;;;18.05;37.50;100595.53;5005602;28;20034;-75
2022/02/23 10:35:58;;;;;;;17.80;5.30;;;;;;;17.77;38.24;100602.66;4993405;28;20030;-75
2022/02/23 10:38:27;;;;;;;12.32;5.53;;;;;;;16.88;39.15;100601.25;4994588;28;20112;-74
2022/02/23 10:40:54;;;;;;;13.20;5.05;;;;;;;17.07;39.15;100592.94;4997198;28;20030;-73
2022/02/23 10:46:41;;;;;;;14.20;4.82;;;;;;;15.84;42.04;100587.06;5002833;28;20430;-76
2022/02/23 10:49:13;;;;;;;13.52;4.95;;;;;;;15.45;43.15;100593.69;4988988;28;20049;-76
2022/02/23 10:51:45;;;;;;;12.88;5.20;;;;;;;15.01;44.25;100593.50;5014772;28;20040;-73
2022/02/23 10:54:13;;;;;;;16.17;6.63;;;;;;;14.62;45.66;100585.91;5005752;28;20117;-75
2022/02/23 10:56:43;;;;;;;11.40;4.80;;;;;;;14.55;45.92;100588.91;4994724;28;20061;-74
2022/02/23 10:59:27;;;;;;;11.20;4.90;;;;;;;13.76;46.67;100583.22;4988459;28;20065;-74
2022/02/23 11:01:54;;;;;;;14.93;5.10;;;;;;;13.08;48.71;100599.66;4987461;28;20438;-74
2022/02/23 11:04:21;;;;;;;9.43;4.45;;;;;;;12.85;49.70;100597.22;5009866;28;20030;-74
2022/02/23 11:06:52;;;;;;;17.13;5.95;;;;;;;12.52;50.04;100586.34;5007975;28;20569;-74
2022/02/23 11:09:17;;;;;;;16.23;4.57;;;;;;;12.21;51.00;100585.91;5012050;28;20073;-74
2022/02/23 11:11:43;;;;;;;19.02;5.85;;;;;;;12.12;50.98;100594.25;5008094;28;20053;-74
2022/02/23 11:14:10;;;;;;;14.20;4.30;;;;;;;11.84;50.38;100586.59;5007838;28;20022;-74
2022/02/23 11:16:37;;;;;;;18.60;5.00;;;;;;;11.57;51.42;100588.59;5010245;28;20129;-74
2022/02/23 11:19:04;;;;;;;19.42;5.22;;;;;;;11.46;51.62;100586.34;5009569;28;20038;-76
2022/02/23 11:21:34;;;;;;;16.05;5.45;;;;;;;11.38;50.89;100583.19;5009100;28;20030;-74
2022/02/23 11:24:03;;;;;;;11.55;4.93;;;;;;;11.20;52.03;100582.13;5009341;28;20068;-74
2022/02/23 11:26:32;;;;;;;13.38;5.97;;;;;;;11.08;52.09;100577.31;5009768;28;20055;-74
2022/02/23 11:29:18;;;;;;;10.63;4.10;;;;;;;11.09;51.51;100577.25;5007884;28;20022;-76
2022/02/23 11:31:48;;;;;;;16.83;5.25;;;;;;;11.08;52.09;100575.53;5012237;28;20041;-73
2022/02/23 11:34:16;;;;;;;16.02;4.75;;;;;;;11.14;52.19;100564.72;5006801;28;20034;-73
2022/02/23 11:36:44;;;;;;;15.35;4.88;;;;;;;11.13;51.84;100573.56;5008662;28;20495;-74
2022/02/23 11:39:20;;;;;;;17.30;5.18;;;;;;;11.15;51.42;100562.97;5008620;28;20042;-74
2022/02/23 11:41:52;;;;;;;7.60;3.65;;;;;;;11.12;51.14;100558.69;5028785;28;20034;-75
2022/02/23 11:44:20;;;;;;;13.07;4.95;;;;;;;11.04;51.55;100562.53;5026598;28;20029;-74